createdAt,value
2022-12-08T00:02:02.625Z,7.97
2022-12-08T00:04:52.738Z,7.75
2022-12-08T00:07:43.947Z,10.38
2022-12-08T00:10:46.627Z,10.75
2022-12-08T00:13:12.203Z,8.65
2022-12-08T00:15:41.604Z,13.65
2022-12-08T00:18:11.607Z,7.93
2022-12-08T00:20:42.433Z,10.60
2022-12-08T00:23:18.017Z,10.00
2022-12-08T00:25:48.128Z,16.73
2022-12-08T00:28:29.703Z,22.75
2022-12-08T00:30:58.515Z,22.17
2022-12-08T00:33:30.946Z,14.38
2022-12-08T00:36:00.907Z,10.68
2022-12-08T00:38:30.229Z,9.35
2022-12-08T00:41:02.912Z,10.73
2022-12-08T00:43:32.443Z,7.22
2022-12-08T00:46:02.147Z,8.85
2022-12-08T00:48:34.193Z,7.93
2022-12-08T00:51:03.046Z,9.55
2022-12-08T00:53:33.727Z,10.43
2022-12-08T00:56:03.566Z,10.98
2022-12-08T00:58:33.774Z,9.68
2022-12-08T01:01:03.266Z,11.30
2022-12-08T01:03:33.805Z,10.02
2022-12-08T01:06:09.504Z,9.02
2022-12-08T01:08:41.172Z,9.13
2022-12-08T01:11:20.639Z,8.25
2022-12-08T01:13:49.872Z,9.48
2022-12-08T01:16:24.492Z,7.93
2022-12-08T01:19:02.575Z,6.40
2022-12-08T01:21:36.071Z,8.13
2022-12-08T01:24:12.938Z,8.05
2022-12-08T01:26:44.312Z,6.63
2022-12-08T01:29:14.956Z,6.65
2022-12-08T01:31:44.765Z,5.90
2022-12-08T01:34:16.015Z,9.07
2022-12-08T01:36:45.502Z,5.97
2022-12-08T01:39:19.745Z,6.65
2022-12-08T01:41:51.181Z,8.05
2022-12-08T01:44:42.568Z,7.03
2022-12-08T01:47:22.768Z,6.30
2022-12-08T01:49:54.797Z,7.78
2022-12-08T01:52:32.013Z,7.07
2022-12-08T01:55:15.086Z,6.72
2022-12-08T01:57:48.440Z,6.03
2022-12-08T02:00:20.965Z,5.30
2022-12-08T02:02:59.935Z,8.00
2022-12-08T02:05:32.201Z,18.67
2022-12-08T02:08:04.418Z,5.78
2022-12-08T02:10:36.148Z,7.65
2022-12-08T02:13:07.928Z,6.95
2022-12-08T02:15:52.722Z,7.25
2022-12-08T02:18:40.030Z,5.72
2022-12-08T02:21:19.386Z,4.50
2022-12-08T02:24:09.419Z,6.30
2022-12-08T02:26:51.624Z,4.50
2022-12-08T02:29:38.347Z,4.53
2022-12-08T02:32:22.213Z,5.93
2022-12-08T02:35:00.862Z,4.63
2022-12-08T02:37:54.856Z,4.45
2022-12-08T02:40:37.509Z,3.70
2022-12-08T02:43:10.312Z,14.90
2022-12-08T02:45:51.082Z,5.00
2022-12-08T02:48:19.771Z,4.38
2022-12-08T02:50:49.267Z,3.58
2022-12-08T02:53:17.971Z,6.47
2022-12-08T02:56:05.858Z,5.00
2022-12-08T02:58:35.586Z,4.95
2022-12-08T03:01:26.867Z,4.70
2022-12-08T03:04:14.888Z,4.28
2022-12-08T03:06:45.782Z,6.13
2022-12-08T03:09:19.768Z,6.88
2022-12-08T03:11:52.402Z,5.20
2022-12-08T03:14:22.413Z,4.13
2022-12-08T03:16:55.545Z,4.93
2022-12-08T03:19:28.789Z,5.85
2022-12-08T03:22:06.747Z,3.90
2022-12-08T03:24:41.323Z,4.07
2022-12-08T03:27:13.331Z,4.22
2022-12-08T03:29:42.931Z,4.47
2022-12-08T03:32:31.562Z,4.38
2022-12-08T03:35:04.902Z,3.97
2022-12-08T03:37:36.427Z,3.90
2022-12-08T03:40:06.562Z,4.20
2022-12-08T03:42:35.152Z,4.17
2022-12-08T03:45:05.171Z,4.35
2022-12-08T03:47:35.561Z,3.90
2022-12-08T03:50:12.601Z,4.97
2022-12-08T03:52:42.811Z,4.78
2022-12-08T03:55:11.910Z,5.13
2022-12-08T03:57:42.728Z,4.80
2022-12-08T04:00:16.205Z,4.90
2022-12-08T04:02:45.297Z,6.70
2022-12-08T04:05:15.374Z,4.65
2022-12-08T04:07:47.759Z,4.38
2022-12-08T04:10:24.362Z,4.30
2022-12-08T04:12:53.456Z,4.85
2022-12-08T04:15:25.581Z,6.25
2022-12-08T04:17:54.283Z,6.68
2022-12-08T04:20:32.802Z,5.13
2022-12-08T04:23:03.352Z,7.60
2022-12-08T04:25:34.142Z,13.93
2022-12-08T04:28:07.095Z,13.05
2022-12-08T04:30:36.300Z,10.52
2022-12-08T04:33:08.115Z,5.75
2022-12-08T04:35:38.476Z,4.90
2022-12-08T04:38:07.398Z,5.50
2022-12-08T04:40:37.346Z,4.82
2022-12-08T04:43:07.244Z,5.55
2022-12-08T04:45:35.960Z,5.07
2022-12-08T04:48:06.565Z,9.40
2022-12-08T04:50:40.382Z,7.93
2022-12-08T04:53:10.054Z,6.88
2022-12-08T04:55:43.395Z,4.93
2022-12-08T04:58:16.211Z,6.45
2022-12-08T05:00:46.893Z,8.95
2022-12-08T05:03:22.641Z,5.70
2022-12-08T05:05:57.411Z,4.80
2022-12-08T05:08:28.117Z,7.10
2022-12-08T05:11:04.852Z,17.98
2022-12-08T05:13:37.001Z,14.70
2022-12-08T05:16:12.953Z,6.32
2022-12-08T05:18:42.106Z,6.68
2022-12-08T05:21:10.968Z,7.18
2022-12-08T05:23:46.875Z,5.55
2022-12-08T05:26:18.422Z,11.07
2022-12-08T05:29:06.133Z,5.00
2022-12-08T05:31:36.748Z,9.18
2022-12-08T05:34:06.877Z,9.40
2022-12-08T05:36:37.043Z,8.65
2022-12-08T05:39:06.640Z,11.00
2022-12-08T05:41:37.780Z,11.18
2022-12-08T05:44:07.880Z,8.07
2022-12-08T05:46:39.116Z,8.85
2022-12-08T05:49:11.160Z,9.05
2022-12-08T05:51:42.929Z,10.18
2022-12-08T05:54:12.570Z,13.00
2022-12-08T05:56:43.886Z,7.32
2022-12-08T05:59:14.828Z,7.35
2022-12-08T06:01:48.549Z,8.18
2022-12-08T06:04:22.805Z,6.07
2022-12-08T06:06:55.682Z,5.20
2022-12-08T06:09:27.846Z,5.10
2022-12-08T06:11:58.762Z,5.85
2022-12-08T06:14:26.998Z,7.53
2022-12-08T06:16:58.883Z,15.30
2022-12-08T06:19:32.699Z,20.90
2022-12-08T06:22:02.186Z,21.50
2022-12-08T06:24:33.168Z,8.73
2022-12-08T06:27:10.373Z,15.93
2022-12-08T06:29:42.432Z,161.57
2022-12-08T06:32:12.719Z,20.92
2022-12-08T06:34:43.691Z,13.38
2022-12-08T06:37:17.059Z,7.53
2022-12-08T06:39:47.874Z,8.38
2022-12-08T06:42:37.312Z,8.88
2022-12-08T06:45:05.742Z,8.40
2022-12-08T06:47:35.413Z,7.45
2022-12-08T06:50:11.230Z,9.68
2022-12-08T06:53:04.474Z,6.90
2022-12-08T06:55:58.792Z,4.38
2022-12-08T06:58:27.682Z,6.80
2022-12-08T07:00:59.213Z,6.93
2022-12-08T07:03:30.819Z,5.10
2022-12-08T07:06:17.842Z,5.28
2022-12-08T07:08:52.676Z,4.72
2022-12-08T07:11:26.644Z,8.43
2022-12-08T07:16:46.517Z,5.53
2022-12-08T07:19:26.723Z,5.07
2022-12-08T07:22:29.444Z,4.43
2022-12-08T07:25:00.500Z,5.78
2022-12-08T07:27:33.080Z,5.00
2022-12-08T07:33:14.041Z,4.97
2022-12-08T07:39:13.624Z,25.33
2022-12-08T07:41:46.857Z,14.85
2022-12-08T07:44:23.546Z,6.88
2022-12-08T07:50:33.197Z,6.45
2022-12-08T07:53:20.055Z,6.55
2022-12-08T07:56:11.211Z,4.95
2022-12-08T07:59:17.250Z,16.10
2022-12-08T08:02:24.040Z,5.72
2022-12-08T08:05:05.004Z,5.50
2022-12-08T08:07:38.304Z,4.72
2022-12-08T08:10:12.280Z,4.68
2022-12-08T08:12:57.383Z,5.20
2022-12-08T08:15:36.842Z,6.63
2022-12-08T08:18:36.433Z,7.67
2022-12-08T08:21:36.603Z,16.20
2022-12-08T08:24:31.892Z,11.20
2022-12-08T08:27:23.669Z,11.75
2022-12-08T08:33:28.449Z,13.40
2022-12-08T08:35:59.375Z,11.25
2022-12-08T08:38:47.921Z,15.57
2022-12-08T08:41:22.491Z,24.65
2022-12-08T08:43:54.519Z,16.13
2022-12-08T08:46:30.805Z,10.75
2022-12-08T08:49:08.865Z,9.45
2022-12-08T08:52:13.167Z,8.68
2022-12-08T08:54:56.237Z,9.35
2022-12-08T08:57:34.699Z,11.05
2022-12-08T09:00:15.674Z,10.23
2022-12-08T09:03:10.461Z,10.43
2022-12-08T09:05:48.966Z,9.55
2022-12-08T09:08:36.005Z,9.20
2022-12-08T09:11:05.448Z,10.43
2022-12-08T09:13:39.917Z,10.77
2022-12-08T09:16:17.718Z,11.75
2022-12-08T09:19:00.364Z,8.70
2022-12-08T09:21:37.837Z,8.60
2022-12-08T09:24:34.497Z,17.13
2022-12-08T09:27:08.128Z,16.38
2022-12-08T09:29:51.445Z,10.18
2022-12-08T09:32:30.662Z,12.63
2022-12-08T09:35:14.328Z,8.50
2022-12-08T09:38:00.887Z,9.48
2022-12-08T09:40:59.961Z,19.83
2022-12-08T09:44:07.500Z,13.75
2022-12-08T09:46:54.598Z,9.85
2022-12-08T09:49:42.733Z,11.35
2022-12-08T09:52:24.045Z,18.80
2022-12-08T09:55:05.732Z,11.25
2022-12-08T09:57:40.247Z,13.20
2022-12-08T10:00:15.553Z,10.98
2022-12-08T10:03:08.078Z,12.43
2022-12-08T10:06:09.968Z,13.70
2022-12-08T10:09:21.155Z,14.57
2022-12-08T10:12:15.543Z,12.05
2022-12-08T10:15:35.885Z,23.50
2022-12-08T10:18:34.320Z,13.02
2022-12-08T10:24:00.049Z,14.13
2022-12-08T10:27:02.790Z,12.68
2022-12-08T10:29:32.086Z,16.60
2022-12-08T10:32:13.074Z,23.00
2022-12-08T10:35:10.035Z,14.23
2022-12-08T10:41:28.450Z,19.23
2022-12-08T10:47:15.729Z,14.68
2022-12-08T10:49:56.892Z,25.33
2022-12-08T10:52:30.466Z,25.15
2022-12-08T10:55:06.247Z,17.63
2022-12-08T10:57:43.918Z,19.95
2022-12-08T11:00:33.735Z,22.48
2022-12-08T11:03:06.507Z,11.15
2022-12-08T11:05:38.629Z,13.43
2022-12-08T11:08:25.106Z,18.17
2022-12-08T11:11:05.230Z,11.75
2022-12-08T11:14:01.519Z,9.93
2022-12-08T11:16:46.424Z,16.02
2022-12-08T11:19:26.563Z,13.75
2022-12-08T11:22:45.455Z,17.30
2022-12-08T11:25:27.392Z,16.35
2022-12-08T11:28:19.599Z,27.70
2022-12-08T11:30:59.089Z,14.30
2022-12-08T11:33:31.817Z,12.57
2022-12-08T11:36:19.655Z,10.43
2022-12-08T11:38:58.027Z,18.95
2022-12-08T11:41:46.161Z,12.00
2022-12-08T11:44:42.884Z,17.17
2022-12-08T11:48:04.684Z,19.33
2022-12-08T11:51:10.019Z,17.05
2022-12-08T11:54:18.808Z,30.65
2022-12-08T11:57:13.449Z,22.48
2022-12-08T11:59:53.697Z,18.15
2022-12-08T12:02:44.854Z,21.67
2022-12-08T12:10:03.784Z,19.23
2022-12-08T12:13:42.630Z,18.73
2022-12-08T12:17:09.896Z,15.43
2022-12-08T12:19:44.472Z,28.65
2022-12-08T12:23:26.610Z,16.35
2022-12-08T12:26:12.661Z,25.23
2022-12-08T12:28:54.051Z,24.58
2022-12-08T12:34:33.371Z,25.75
2022-12-08T12:37:29.698Z,17.65
2022-12-08T12:40:34.812Z,25.10
2022-12-08T12:43:32.480Z,23.33
2022-12-08T12:46:29.183Z,22.50
2022-12-08T12:49:43.913Z,25.08
2022-12-08T12:58:52.046Z,96.15
2022-12-08T13:04:53.538Z,23.60
2022-12-08T13:07:36.680Z,25.53
2022-12-08T13:10:32.242Z,58.15
2022-12-08T13:13:25.086Z,36.03
2022-12-08T13:16:27.750Z,26.60
2022-12-08T13:19:04.249Z,35.42
2022-12-08T13:25:42.782Z,23.95
2022-12-08T13:28:33.785Z,23.00
2022-12-08T13:31:05.926Z,24.73
2022-12-08T13:33:58.819Z,24.33
2022-12-08T13:36:42.781Z,20.45
2022-12-08T13:39:44.324Z,23.33
2022-12-08T13:42:35.175Z,25.55
2022-12-08T13:56:24.856Z,26.40
2022-12-08T14:01:55.872Z,25.25
2022-12-08T14:05:17.623Z,30.98
2022-12-08T14:07:46.727Z,34.58
2022-12-08T14:10:31.007Z,40.78
2022-12-08T14:13:25.231Z,33.72
2022-12-08T14:16:03.625Z,35.85
2022-12-08T14:18:51.829Z,27.67
2022-12-08T14:24:29.768Z,28.45
2022-12-08T14:27:04.643Z,31.95
2022-12-08T14:29:48.934Z,36.53
2022-12-08T14:32:52.541Z,27.98
2022-12-08T14:38:36.472Z,26.38
2022-12-08T14:41:45.597Z,24.23
2022-12-08T14:44:25.089Z,24.35
2022-12-08T14:47:21.025Z,23.23
2022-12-08T14:49:58.604Z,25.85
2022-12-08T14:52:41.831Z,24.13
2022-12-08T14:55:16.945Z,22.58
2022-12-08T14:57:58.652Z,24.02
2022-12-08T15:01:14.628Z,25.30
2022-12-08T15:03:51.392Z,28.15
2022-12-08T15:06:34.273Z,33.63
2022-12-08T15:09:41.145Z,30.92
2022-12-08T15:13:00.141Z,26.70
2022-12-08T15:15:51.797Z,30.42
2022-12-08T15:18:42.952Z,30.42
2022-12-08T15:21:17.578Z,35.65
2022-12-08T15:23:59.873Z,29.33
2022-12-08T15:26:43.478Z,29.40
2022-12-08T15:29:29.824Z,25.77
2022-12-08T15:32:08.483Z,25.73
2022-12-08T15:34:56.647Z,43.55
2022-12-08T15:37:29.796Z,36.50
2022-12-08T15:40:10.216Z,30.17
2022-12-08T15:42:46.613Z,32.15
2022-12-08T15:45:22.647Z,36.35
2022-12-08T15:47:59.154Z,33.67
2022-12-08T15:50:31.864Z,31.10
2022-12-08T15:52:59.743Z,37.33
2022-12-08T15:55:38.805Z,63.25
2022-12-08T16:01:00.024Z,43.75
2022-12-08T16:04:27.467Z,43.45
2022-12-08T16:07:20.300Z,37.00
2022-12-08T16:15:55.580Z,72.95
2022-12-08T16:18:36.863Z,52.63
2022-12-08T16:21:25.547Z,40.90
2022-12-08T16:23:58.757Z,38.92
2022-12-08T16:27:28.472Z,38.88
2022-12-08T16:29:25.665Z,46.38
2022-12-08T16:32:19.266Z,35.20
2022-12-08T16:34:49.552Z,35.45
2022-12-08T16:37:25.832Z,28.10
2022-12-08T16:40:15.259Z,60.20
2022-12-08T16:42:46.115Z,48.45
2022-12-08T16:45:39.982Z,33.90
2022-12-08T16:48:14.616Z,40.05
2022-12-08T16:50:47.781Z,34.05
2022-12-08T16:53:17.086Z,33.20
2022-12-08T16:55:53.469Z,50.78
2022-12-08T16:58:24.827Z,48.80
2022-12-08T17:00:55.403Z,68.40
2022-12-08T17:03:32.952Z,67.75
2022-12-08T17:06:18.736Z,61.20
2022-12-08T17:08:57.147Z,56.22
2022-12-08T17:11:32.463Z,41.38
2022-12-08T17:14:04.911Z,37.30
2022-12-08T17:16:35.735Z,37.15
2022-12-08T17:19:11.047Z,46.08
2022-12-08T17:21:55.699Z,73.20
2022-12-08T17:24:29.600Z,39.28
2022-12-08T17:27:20.207Z,35.13
2022-12-08T17:29:59.286Z,76.72
2022-12-08T17:32:33.977Z,49.80
2022-12-08T17:37:58.568Z,37.83
2022-12-08T17:40:39.432Z,81.88
2022-12-08T17:43:15.563Z,32.33
2022-12-08T17:45:52.833Z,38.83
2022-12-08T17:48:45.890Z,30.60
2022-12-08T17:51:16.865Z,55.38
2022-12-08T17:53:49.088Z,67.75
2022-12-08T17:56:28.299Z,56.13
2022-12-08T17:59:54.742Z,79.43
2022-12-08T18:02:54.010Z,74.90
2022-12-08T18:05:32.234Z,51.75
2022-12-08T18:08:38.660Z,53.53
2022-12-08T18:11:18.000Z,36.28
2022-12-08T18:13:50.053Z,65.65
2022-12-08T18:16:31.461Z,46.10
2022-12-08T18:19:04.268Z,28.88
2022-12-08T18:21:34.636Z,37.35
2022-12-08T18:24:21.132Z,29.42
2022-12-08T18:26:56.170Z,30.50
2022-12-08T18:29:28.880Z,49.38
2022-12-08T18:31:59.298Z,40.53
2022-12-08T18:34:38.303Z,43.13
2022-12-08T18:37:25.844Z,36.53
2022-12-08T18:39:59.782Z,33.92
2022-12-08T18:43:05.341Z,34.70
2022-12-08T18:45:49.243Z,28.35
2022-12-08T18:48:33.097Z,32.90
2022-12-08T18:51:10.031Z,44.63
2022-12-08T18:53:43.814Z,111.43
2022-12-08T18:56:21.510Z,89.30
2022-12-08T18:59:02.555Z,45.33
2022-12-08T19:01:38.299Z,103.97
2022-12-08T19:04:28.515Z,48.25
2022-12-08T19:06:59.441Z,98.35
2022-12-08T19:09:35.097Z,46.72
2022-12-08T19:12:20.075Z,42.47
2022-12-08T19:14:53.620Z,35.35
2022-12-08T19:17:26.246Z,41.92
2022-12-08T19:19:57.766Z,38.13
2022-12-08T19:22:26.678Z,42.97
2022-12-08T19:28:19.778Z,29.38
2022-12-08T19:33:48.759Z,26.23
2022-12-08T19:36:41.192Z,24.38
2022-12-08T19:39:44.533Z,23.30
2022-12-08T19:42:41.057Z,24.07
2022-12-08T19:45:21.998Z,33.38
2022-12-08T19:51:12.193Z,29.17
2022-12-08T19:53:48.146Z,54.67
2022-12-08T19:56:18.579Z,112.97
2022-12-08T19:58:58.450Z,78.13
2022-12-08T20:01:39.704Z,55.05
2022-12-08T20:04:21.060Z,52.47
2022-12-08T20:06:55.120Z,30.17
2022-12-08T20:09:40.027Z,27.65
2022-12-08T20:12:43.958Z,82.78
2022-12-08T20:16:08.634Z,28.23
2022-12-08T20:18:45.070Z,33.70
2022-12-08T20:21:32.223Z,71.88
2022-12-08T20:25:01.020Z,135.05
2022-12-08T20:27:52.275Z,48.40
2022-12-08T20:40:08.082Z,26.63
2022-12-08T20:42:53.504Z,25.92
2022-12-08T20:45:31.017Z,63.00
2022-12-08T20:48:26.185Z,44.53
2022-12-08T20:50:59.777Z,79.68
2022-12-08T20:53:56.569Z,58.85
2022-12-08T20:56:30.512Z,38.25
2022-12-08T20:59:01.323Z,32.40
2022-12-08T21:01:42.018Z,27.65
2022-12-08T21:04:17.472Z,23.60
2022-12-08T21:06:52.307Z,23.17
2022-12-08T21:09:24.813Z,28.33
2022-12-08T21:11:54.040Z,24.67
2022-12-08T21:14:26.661Z,24.30
2022-12-08T21:17:03.828Z,24.38
2022-12-08T21:19:43.052Z,27.23
2022-12-08T21:22:16.096Z,26.90
2022-12-08T21:24:53.595Z,28.73
2022-12-08T21:27:24.041Z,26.25
2022-12-08T21:29:55.878Z,22.92
2022-12-08T21:32:30.754Z,29.05
2022-12-08T21:35:11.259Z,29.48
2022-12-08T21:38:04.075Z,24.40
2022-12-08T21:40:35.575Z,22.77
2022-12-08T21:43:14.911Z,23.02
2022-12-08T21:45:51.271Z,23.20
2022-12-08T21:48:32.804Z,25.17
2022-12-08T21:51:07.701Z,32.70
2022-12-08T21:53:36.472Z,23.27
2022-12-08T21:56:13.029Z,41.67
2022-12-08T21:58:46.763Z,24.30
2022-12-08T22:01:21.442Z,23.65
2022-12-08T22:03:52.312Z,29.65
2022-12-08T22:06:24.291Z,28.95
2022-12-08T22:08:57.700Z,25.48
2022-12-08T22:11:31.873Z,25.48
2022-12-08T22:14:33.579Z,28.33
2022-12-08T22:17:07.917Z,25.95
2022-12-08T22:19:42.949Z,26.70
2022-12-08T22:22:12.990Z,28.85
2022-12-08T22:24:48.745Z,25.95
2022-12-08T22:27:18.884Z,23.65
2022-12-08T22:29:49.849Z,21.55
2022-12-08T22:32:21.178Z,21.80
2022-12-08T22:34:51.989Z,22.65
2022-12-08T22:37:28.003Z,21.77
2022-12-08T22:39:57.068Z,21.57
2022-12-08T22:42:27.828Z,23.63
2022-12-08T22:45:17.707Z,21.80
2022-12-08T22:47:47.427Z,23.50
2022-12-08T22:50:26.600Z,23.17
2022-12-08T22:53:25.461Z,23.00
2022-12-08T22:55:57.160Z,20.33
2022-12-08T22:58:36.405Z,20.75
2022-12-08T23:01:07.916Z,20.88
2022-12-08T23:03:51.775Z,23.27
2022-12-08T23:06:21.063Z,22.70
2022-12-08T23:08:52.324Z,23.50
2022-12-08T23:11:28.379Z,22.95
2022-12-08T23:14:03.466Z,22.52
2022-12-08T23:16:34.917Z,23.67
2022-12-08T23:19:12.055Z,23.80
2022-12-08T23:21:40.924Z,24.48
2022-12-08T23:24:14.668Z,22.83
2022-12-08T23:26:51.140Z,23.35
2022-12-08T23:29:24.682Z,23.65
2022-12-08T23:32:09.322Z,23.05
2022-12-08T23:34:51.560Z,23.95
2022-12-08T23:37:23.198Z,23.92
2022-12-08T23:39:51.782Z,23.83
2022-12-08T23:42:24.691Z,23.30
2022-12-08T23:44:53.601Z,23.77
2022-12-08T23:47:26.690Z,23.98
2022-12-08T23:50:13.626Z,25.63
2022-12-08T23:53:07.513Z,24.80
2022-12-08T23:55:43.200Z,25.02
2022-12-08T23:58:13.159Z,24.52
